Aviation Digital Data Service (ADDS)

Output produced by METARs form (0940 UTC 01 November 2014)
found at http://www.aviationweather.gov/adds/metars/
 
KTHV 010853Z AUTO 36005KT 10SM OVC020 08/04 A2980 RMK AO2 RAE0758 SLP096 P0000 60000 T00780044 55007
KTHV 010753Z AUTO 34005KT 10SM -RA OVC020 08/04 A2980 RMK AO2 RAB44 SLP096 P0000 T00780044
KTHV 010653Z AUTO 36004KT 10SM OVC028 08/03 A2982 RMK AO2 SLP102 T00830033
KTHV 010553Z AUTO 29003KT 10SM OVC029 08/03 A2983 RMK AO2 RAB0456E12 SLP103 P0000 60000 T00780033 10089 20056 58013
KTHV 010453Z AUTO 33003KT 10SM OVC038 07/04 A2984 RMK AO2 SLP107 T00720039 401170056
KTHV 010353Z AUTO 00000KT 10SM OVC060 07/04 A2986 RMK AO2 SLP115 T00720039
KTHV 010253Z AUTO 01003KT 10SM OVC055 06/03 A2987 RMK AO2 SLP117 T00610028 58001
KTHV 010153Z AUTO 00000KT 10SM OVC055 08/03 A2987 RMK AO2 SLP118 T00780033
KTHV 010053Z AUTO 01004KT 10SM OVC055 08/03 A2987 RMK AO2 SLP120 T00780033
KTHV 312353Z AUTO 27003KT 10SM OVC055 08/03 A2987 RMK AO2 SLP119 T00780033 10117 20078 58001
KTHV 312253Z AUTO 00000KT 10SM OVC055 09/03 A2988 RMK AO2 SLP122 T00890033
KTHV 312153Z AUTO 00000KT 10SM OVC055 11/M01 A2987 RMK AO2 SLP119 T01061006
KTHV 312053Z AUTO 00000KT 10SM OVC055 11/M01 A2987 RMK AO2 SLP119 T01111006 56016
KTHV 311953Z AUTO 08003KT 10SM OVC055 12/00 A2988 RMK AO2 SLP120 T01170000
KTHV 311853Z AUTO 09004KT 10SM OVC055 11/01 A2989 RMK AO2 SLP126 T01110006 $
KTHV 311753Z AUTO 08006KT 10SM OVC055 11/01 A2992 RMK AO2 SLP135 T01110011 10111 20072 58022 $
KTHV 311653Z AUTO 09007KT 10SM OVC055 10/02 A2994 RMK AO2 SLP143 T01000017 $
KTHV 311553Z AUTO 08005KT 10SM OVC055 09/02 A2998 RMK AO2 SLP158 T00940022 $
KTHV 311453Z AUTO 12006KT 10SM OVC055 09/02 A2999 RMK AO2 SLP159 T00890017 58003 $
KTHV 311353Z AUTO 09006KT 10SM OVC055 08/02 A3000 RMK AO2 SLP162 T00830022 $
KTHV 311253Z AUTO 08005KT 10SM OVC055 08/03 A3000 RMK AO2 SLP164 T00830033 $
KTHV 311153Z AUTO 12003KT 10SM OVC055 07/04 A3000 RMK AO2 SLP162 T00720039 10078 20067 57004
KTHV 311053Z AUTO 00000KT 10SM OVC055 07/04 A3000 RMK AO2 SLP163 T00720044
KTHV 310953Z AUTO 00000KT 10SM OVC055 07/05 A3000 RMK AO2 SLP164 T00720050
KTHV 310853Z AUTO 00000KT 10SM OVC055 07/05 A3001 RMK AO2 SLP165 T00720050 58004
KTHV 310753Z AUTO 00000KT 10SM OVC055 07/04 A3001 RMK AO2 SLP166 T00720044
KTHV 310653Z AUTO 00000KT 10SM OVC050 07/05 A3002 RMK AO2 SLP169 T00720050
KTHV 310553Z AUTO 00000KT 10SM OVC055 07/04 A3002 RMK AO2 SLP169 T00720044 10083 20050 56005
KTHV 310453Z AUTO 00000KT 10SM OVC055 07/05 A3002 RMK AO2 SLP170 T00720050 401390039
KTHV 310353Z AUTO 00000KT 10SM OVC050 07/05 A3003 RMK AO2 SLP172 T00720050
KTHV 310253Z AUTO 00000KT 10SM OVC055 07/04 A3003 RMK AO2 SLP174 T00720044 50001
KTHV 310153Z AUTO 00000KT 10SM OVC050 08/04 A3004 RMK AO2 SLP175 T00830044
KTHV 310053Z AUTO 00000KT 10SM OVC050 07/04 A3004 RMK AO2 SLP176 T00720039
KTHV 302353Z AUTO 00000KT 10SM BKN050 07/04 A3003 RMK AO2 SLP175 T00670039 10133 20067 50004
KTHV 302253Z AUTO 30003KT 10SM OVC050 09/04 A3004 RMK AO2 SLP175 T00890039
KTHV 302153Z AUTO 31004KT 10SM OVC050 11/03 A3002 RMK AO2 SLP171 T01110028